Time;durP1;ratioP1;P1;durP2;ratioP2;P2;SDS_P1;SDS_P2;PMS_P1;PMS_P2;Temp;Humidity;BMP_temperature;BMP_pressure;BME280_temperature;BME280_humidity;BME280_pressure;Samples;Min_cycle;Max_cycle;Signal;HPM_P1;HPM_P2
2023/04/07 00:00:39;;;;;;;8.87;7.27;;;;;;;;;;5052471;28;20720;-51
2023/04/07 00:03:06;;;;;;;10.80;7.87;;;;;;;;;;5063339;28;20318;-52
2023/04/07 00:05:33;;;;;;;9.43;7.10;;;;;;;;;;5060160;28;20306;-51
2023/04/07 00:08:00;;;;;;;9.57;7.10;;;;;;;;;;5062619;28;20235;-52
2023/04/07 00:10:26;;;;;;;10.47;8.67;;;;;;;;;;5056534;28;20311;-52
2023/04/07 00:12:53;;;;;;;10.40;8.27;;;;;;;;;;5053031;28;20282;-51
2023/04/07 00:15:19;;;;;;;12.53;8.43;;;;;;;;;;5052240;28;20758;-52
2023/04/07 00:17:48;;;;;;;11.47;8.63;;;;;;;;;;5061466;28;20237;-52
2023/04/07 00:20:14;;;;;;;12.37;8.60;;;;;;;;;;5062742;28;20270;-51
2023/04/07 00:22:41;;;;;;;10.07;8.80;;;;;;;;;;5059923;28;20273;-52
2023/04/07 00:25:08;;;;;;;12.17;8.30;;;;;;;;;;5063076;28;20314;-51
2023/04/07 00:27:35;;;;;;;12.13;8.43;;;;;;;;;;5059801;28;20905;-51
2023/04/07 00:30:01;;;;;;;10.93;8.70;;;;;;;;;;5049832;28;20282;-52
2023/04/07 00:32:28;;;;;;;11.30;8.90;;;;;;;;;;5057860;28;20293;-52
2023/04/07 00:34:56;;;;;;;14.97;9.83;;;;;;;;;;5060609;28;20313;-51
2023/04/07 00:37:22;;;;;;;12.53;9.73;;;;;;;;;;5062940;28;20279;-51
2023/04/07 00:39:50;;;;;;;11.73;9.33;;;;;;;;;;5060227;28;20736;-51
2023/04/07 00:42:16;;;;;;;10.90;9.33;;;;;;;;;;5060842;28;20226;-52
2023/04/07 00:44:43;;;;;;;10.47;8.20;;;;;;;;;;5055316;28;20306;-51
2023/04/07 00:47:09;;;;;;;14.70;9.60;;;;;;;;;;5054531;28;20238;-53
2023/04/07 00:49:36;;;;;;;10.60;7.87;;;;;;;;;;5044613;28;20240;-53
2023/04/07 00:52:05;;;;;;;13.53;8.53;;;;;;;;;;5035158;28;20266;-51
2023/04/07 00:54:32;;;;;;;11.37;8.07;;;;;;;;;;5040151;28;20244;-52
2023/04/07 00:57:00;;;;;;;8.13;7.33;;;;;;;;;;5029630;28;20232;-52
2023/04/07 00:59:28;;;;;;;12.53;8.80;;;;;;;;;;5034785;28;20314;-52
2023/04/07 01:01:58;;;;;;;8.27;7.40;;;;;;;;;;5037046;28;20860;-52
2023/04/07 01:04:28;;;;;;;8.17;7.20;;;;;;;;;;5038726;28;20722;-52
2023/04/07 01:06:57;;;;;;;7.27;6.57;;;;;;;;;;5028301;28;20227;-52
2023/04/07 01:09:28;;;;;;;7.50;6.77;;;;;;;;;;5036019;28;20362;-52
2023/04/07 01:11:58;;;;;;;7.93;6.23;;;;;;;;;;5037715;28;20315;-52
2023/04/07 01:14:25;;;;;;;7.70;6.27;;;;;;;;;;5045390;28;20256;-52
2023/04/07 01:16:52;;;;;;;10.07;6.90;;;;;;;;;;5044315;28;20331;-52
2023/04/07 01:19:32;;;;;;;8.10;6.53;;;;;;;;;;5043621;28;20649;-53
2023/04/07 01:22:00;;;;;;;9.93;6.27;;;;;;;;;;5019694;28;20232;-51
2023/04/07 01:24:34;;;;;;;11.20;6.83;;;;;;;;;;5026953;28;20229;-50
2023/04/07 01:27:06;;;;;;;9.37;7.03;;;;;;;;;;5023808;28;20234;-50
2023/04/07 01:29:39;;;;;;;10.10;6.47;;;;;;;;;;5024887;28;20319;-51
2023/04/07 01:32:07;;;;;;;8.93;6.97;;;;;;;;;;5020612;28;20240;-50
2023/04/07 01:34:34;;;;;;;8.53;7.63;;;;;;;;;;5024252;28;20237;-50
2023/04/07 01:37:02;;;;;;;9.70;7.30;;;;;;;;;;5024476;28;21149;-51
2023/04/07 01:39:29;;;;;;;9.30;8.20;;;;;;;;;;5033647;28;20314;-51
2023/04/07 01:41:57;;;;;;;7.10;6.40;;;;;;;;;;5062762;28;20834;-52
2023/04/07 01:44:24;;;;;;;9.73;7.13;;;;;;;;;;5053933;28;20231;-51
2023/04/07 01:46:53;;;;;;;9.73;7.53;;;;;;;;;;5044920;28;20243;-51
2023/04/07 01:49:20;;;;;;;7.83;7.13;;;;;;;;;;5044327;28;20675;-51
2023/04/07 01:51:49;;;;;;;9.43;7.63;;;;;;;;;;5044331;28;20234;-51
2023/04/07 01:54:16;;;;;;;10.57;8.20;;;;;;;;;;5047185;28;20339;-51
2023/04/07 01:56:43;;;;;;;9.77;8.07;;;;;;;;;;5065107;28;20235;-52
2023/04/07 01:59:10;;;;;;;9.90;8.40;;;;;;;;;;5058887;28;20231;-52
2023/04/07 02:01:36;;;;;;;10.80;8.60;;;;;;;;;;5050879;28;20334;-51
2023/04/07 02:04:09;;;;;;;10.60;8.17;;;;;;;;;;5064209;28;20328;-52
2023/04/07 02:06:39;;;;;;;16.40;9.23;;;;;;;;;;5045866;28;20259;-51
2023/04/07 02:09:07;;;;;;;11.23;9.07;;;;;;;;;;5055993;28;20234;-51
2023/04/07 02:11:34;;;;;;;11.93;9.10;;;;;;;;;;5063745;28;20231;-52
2023/04/07 02:14:02;;;;;;;13.73;10.73;;;;;;;;;;5064082;28;20611;-52
2023/04/07 02:16:30;;;;;;;12.63;10.17;;;;;;;;;;5049382;28;20293;-51
2023/04/07 02:18:57;;;;;;;17.43;11.57;;;;;;;;;;5062445;28;20276;-52
2023/04/07 02:21:26;;;;;;;13.33;11.10;;;;;;;;;;5051948;28;20349;-51
2023/04/07 02:23:52;;;;;;;14.13;11.47;;;;;;;;;;5043953;28;20365;-52
2023/04/07 02:26:19;;;;;;;15.37;11.07;;;;;;;;;;5047637;28;20233;-50
2023/04/07 02:28:46;;;;;;;17.40;11.37;;;;;;;;;;5048416;28;20232;-51
2023/04/07 02:31:13;;;;;;;14.00;10.37;;;;;;;;;;5045559;28;20223;-52
2023/04/07 02:33:39;;;;;;;10.67;9.57;;;;;;;;;;5052424;28;20239;-51
2023/04/07 02:36:06;;;;;;;13.07;10.77;;;;;;;;;;5041202;28;20311;-51
2023/04/07 02:38:34;;;;;;;14.03;9.73;;;;;;;;;;5045888;28;20237;-52
2023/04/07 02:41:01;;;;;;;15.70;12.33;;;;;;;;;;5043038;28;20240;-52
2023/04/07 02:43:28;;;;;;;13.33;11.13;;;;;;;;;;5040584;28;20240;-52
2023/04/07 02:45:55;;;;;;;17.60;12.97;;;;;;;;;;5031744;28;20247;-52
2023/04/07 02:48:21;;;;;;;17.87;12.47;;;;;;;;;;5053598;28;20231;-51
2023/04/07 02:50:48;;;;;;;14.93;11.50;;;;;;;;;;5055849;28;20245;-51
2023/04/07 02:53:14;;;;;;;14.17;11.53;;;;;;;;;;5038045;28;20232;-51
2023/04/07 02:55:43;;;;;;;13.40;10.33;;;;;;;;;;5057626;28;20239;-52
2023/04/07 02:58:10;;;;;;;12.37;10.37;;;;;;;;;;5052517;28;20987;-51
2023/04/07 03:00:38;;;;;;;12.00;9.70;;;;;;;;;;5056566;28;20229;-51
2023/04/07 03:03:05;;;;;;;13.67;10.33;;;;;;;;;;5044627;28;20262;-51
2023/04/07 03:05:32;;;;;;;10.03;9.07;;;;;;;;;;5062263;28;20712;-50
2023/04/07 03:07:59;;;;;;;9.50;8.53;;;;;;;;;;5057487;28;20240;-52
2023/04/07 03:10:26;;;;;;;12.53;10.80;;;;;;;;;;5058832;28;20257;-52
2023/04/07 03:12:54;;;;;;;11.60;10.27;;;;;;;;;;5058034;28;20395;-51
2023/04/07 03:15:20;;;;;;;13.07;10.17;;;;;;;;;;5065704;28;20988;-51
2023/04/07 03:17:47;;;;;;;15.17;10.43;;;;;;;;;;5051903;28;20721;-51
2023/04/07 03:20:13;;;;;;;12.40;9.23;;;;;;;;;;5060541;28;20231;-51
2023/04/07 03:22:40;;;;;;;12.20;9.83;;;;;;;;;;5050840;28;20320;-51
2023/04/07 03:25:07;;;;;;;13.17;9.97;;;;;;;;;;5036609;28;20321;-52
2023/04/07 03:27:34;;;;;;;14.43;9.63;;;;;;;;;;5060036;28;20234;-51
2023/04/07 03:30:02;;;;;;;11.57;9.27;;;;;;;;;;5049385;28;20266;-52
2023/04/07 03:32:29;;;;;;;10.60;9.03;;;;;;;;;;5047093;28;20309;-51
2023/04/07 03:34:56;;;;;;;10.67;9.20;;;;;;;;;;5047680;28;20315;-52
2023/04/07 03:37:22;;;;;;;10.50;9.03;;;;;;;;;;5046772;28;20250;-51
2023/04/07 03:39:49;;;;;;;13.00;8.93;;;;;;;;;;5047873;28;20893;-51
2023/04/07 03:42:15;;;;;;;12.50;10.13;;;;;;;;;;5047936;28;20236;-53
2023/04/07 03:44:42;;;;;;;13.43;10.00;;;;;;;;;;5053921;28;20322;-53
2023/04/07 03:47:10;;;;;;;12.07;10.00;;;;;;;;;;5047623;28;20241;-51
2023/04/07 03:49:37;;;;;;;13.37;10.10;;;;;;;;;;5047059;28;20317;-52
2023/04/07 03:52:04;;;;;;;13.40;9.57;;;;;;;;;;5059009;28;20234;-51
2023/04/07 03:54:30;;;;;;;12.63;8.87;;;;;;;;;;5058335;28;20262;-51
2023/04/07 03:56:56;;;;;;;12.00;9.50;;;;;;;;;;5060325;28;20733;-51
2023/04/07 03:59:23;;;;;;;10.63;9.53;;;;;;;;;;5048251;28;20326;-51
2023/04/07 04:01:50;;;;;;;9.60;8.60;;;;;;;;;;5052992;28;20247;-50
2023/04/07 04:04:18;;;;;;;10.53;9.43;;;;;;;;;;5067492;28;20230;-51
2023/04/07 04:06:44;;;;;;;10.03;9.03;;;;;;;;;;5051216;28;20730;-53
2023/04/07 04:09:10;;;;;;;10.13;8.37;;;;;;;;;;5054774;28;20239;-54
2023/04/07 04:11:37;;;;;;;11.60;9.70;;;;;;;;;;5064080;28;20240;-51
2023/04/07 04:14:04;;;;;;;14.47;9.30;;;;;;;;;;5051570;28;20234;-52
2023/04/07 04:16:31;;;;;;;10.23;8.60;;;;;;;;;;5061481;28;21354;-51
2023/04/07 04:18:57;;;;;;;10.17;8.30;;;;;;;;;;5060117;28;20239;-51
2023/04/07 04:21:26;;;;;;;8.20;7.27;;;;;;;;;;5037863;28;20242;-51
2023/04/07 04:23:52;;;;;;;9.03;7.67;;;;;;;;;;5048041;28;20234;-52
2023/04/07 04:26:19;;;;;;;10.40;8.00;;;;;;;;;;5048679;28;20234;-51
2023/04/07 04:28:46;;;;;;;12.03;9.37;;;;;;;;;;5055365;28;20236;-51
2023/04/07 04:31:13;;;;;;;10.30;9.10;;;;;;;;;;5053670;28;20239;-52
2023/04/07 04:33:40;;;;;;;10.07;8.27;;;;;;;;;;5047677;28;20233;-51
2023/04/07 04:36:07;;;;;;;8.57;7.73;;;;;;;;;;5042813;28;20362;-51
2023/04/07 04:38:35;;;;;;;10.23;8.50;;;;;;;;;;5052842;28;20243;-51
2023/04/07 04:41:02;;;;;;;11.37;8.40;;;;;;;;;;5046199;28;20309;-54
2023/04/07 04:43:29;;;;;;;9.03;7.17;;;;;;;;;;5052575;28;20965;-52
2023/04/07 04:45:58;;;;;;;8.77;6.80;;;;;;;;;;5055997;28;20234;-51
2023/04/07 04:48:24;;;;;;;8.40;7.30;;;;;;;;;;5045729;28;20310;-52
2023/04/07 04:50:51;;;;;;;9.07;7.57;;;;;;;;;;5054296;28;20285;-51
2023/04/07 04:53:17;;;;;;;8.50;7.57;;;;;;;;;;5059033;28;20242;-50
2023/04/07 04:55:50;;;;;;;9.50;7.47;;;;;;;;;;5059229;28;20290;-51
2023/04/07 04:58:18;;;;;;;9.73;7.17;;;;;;;;;;5055902;28;20237;-51
2023/04/07 05:00:45;;;;;;;9.30;7.87;;;;;;;;;;5047491;28;20313;-51
2023/04/07 05:03:14;;;;;;;8.13;7.33;;;;;;;;;;5058939;28;20308;-51
2023/04/07 05:05:41;;;;;;;8.60;7.63;;;;;;;;;;5056343;28;20711;-53
2023/04/07 05:08:08;;;;;;;10.87;7.40;;;;;;;;;;5059477;28;20291;-50
2023/04/07 05:10:38;;;;;;;8.43;7.47;;;;;;;;;;5044088;28;20266;-51
2023/04/07 05:13:06;;;;;;;9.00;6.77;;;;;;;;;;5047270;28;20228;-51
2023/04/07 05:15:32;;;;;;;8.80;6.70;;;;;;;;;;5027831;28;20244;-51
2023/04/07 05:17:59;;;;;;;9.27;7.43;;;;;;;;;;5058231;28;20233;-51
2023/04/07 05:20:25;;;;;;;8.53;7.47;;;;;;;;;;5052283;28;20241;-51
2023/04/07 05:22:52;;;;;;;8.53;7.30;;;;;;;;;;5040751;28;20585;-51
2023/04/07 05:25:19;;;;;;;9.97;7.53;;;;;;;;;;5059848;28;20261;-51
2023/04/07 05:27:46;;;;;;;8.63;7.60;;;;;;;;;;5033915;28;20246;-51
2023/04/07 05:30:14;;;;;;;8.77;7.87;;;;;;;;;;5047266;28;20326;-53
2023/04/07 05:32:41;;;;;;;10.60;7.70;;;;;;;;;;5047238;28;20234;-54
2023/04/07 05:35:08;;;;;;;7.77;6.97;;;;;;;;;;5050297;28;20695;-52
2023/04/07 05:37:35;;;;;;;7.73;6.67;;;;;;;;;;5028973;28;20243;-51
2023/04/07 05:40:01;;;;;;;7.40;6.50;;;;;;;;;;5046260;28;20239;-53
2023/04/07 05:42:28;;;;;;;9.37;7.63;;;;;;;;;;5035937;28;20720;-51
2023/04/07 05:44:55;;;;;;;8.10;7.07;;;;;;;;;;5041441;28;20229;-51
2023/04/07 05:47:24;;;;;;;9.27;7.27;;;;;;;;;;5051626;28;20240;-51
2023/04/07 05:49:50;;;;;;;9.43;7.67;;;;;;;;;;5040709;28;20290;-51
2023/04/07 05:52:17;;;;;;;8.63;7.73;;;;;;;;;;5037757;28;20732;-52
2023/04/07 05:54:44;;;;;;;10.03;8.57;;;;;;;;;;5053861;28;20324;-51
2023/04/07 05:57:10;;;;;;;8.43;7.50;;;;;;;;;;5055678;28;20240;-51
2023/04/07 05:59:37;;;;;;;9.00;7.53;;;;;;;;;;5048291;28;20263;-51
2023/04/07 06:02:04;;;;;;;10.00;8.53;;;;;;;;;;5049895;28;20283;-53
2023/04/07 06:04:34;;;;;;;10.80;7.67;;;;;;;;;;5060167;28;20320;-51
2023/04/07 06:07:00;;;;;;;13.43;10.10;;;;;;;;;;5049214;28;20307;-51
2023/04/07 06:09:27;;;;;;;9.67;8.27;;;;;;;;;;5040136;28;20234;-51
2023/04/07 06:11:55;;;;;;;10.53;7.47;;;;;;;;;;5038894;28;20243;-51
2023/04/07 06:14:22;;;;;;;12.10;8.23;;;;;;;;;;5050893;28;20679;-51
2023/04/07 06:16:48;;;;;;;9.20;7.33;;;;;;;;;;5045471;28;20701;-52
2023/04/07 06:19:15;;;;;;;9.33;8.43;;;;;;;;;;5045762;28;20588;-52
2023/04/07 06:21:43;;;;;;;10.57;7.47;;;;;;;;;;5054548;28;20230;-53
2023/04/07 06:24:10;;;;;;;9.23;7.53;;;;;;;;;;5040331;28;20950;-52
2023/04/07 06:26:36;;;;;;;10.10;8.80;;;;;;;;;;5042798;28;20320;-52
2023/04/07 06:29:03;;;;;;;13.40;8.90;;;;;;;;;;5045824;28;20327;-52
2023/04/07 06:31:30;;;;;;;12.40;8.50;;;;;;;;;;5035926;28;20232;-52
2023/04/07 06:33:57;;;;;;;9.87;7.80;;;;;;;;;;5039931;28;20231;-52
2023/04/07 06:36:24;;;;;;;10.20;8.17;;;;;;;;;;5034619;28;20228;-52
2023/04/07 06:38:52;;;;;;;9.93;8.10;;;;;;;;;;5043687;28;20810;-53
2023/04/07 06:41:19;;;;;;;11.07;8.20;;;;;;;;;;5058202;28;20241;-52
2023/04/07 06:43:47;;;;;;;15.07;9.00;;;;;;;;;;5060922;28;20287;-52
2023/04/07 06:46:13;;;;;;;11.30;8.73;;;;;;;;;;5057562;28;20326;-52
2023/04/07 06:48:40;;;;;;;10.50;7.87;;;;;;;;;;5061739;28;20310;-52
2023/04/07 06:51:07;;;;;;;9.83;8.37;;;;;;;;;;5061643;28;20606;-52
2023/04/07 06:53:34;;;;;;;10.60;8.97;;;;;;;;;;5062906;28;20231;-51
2023/04/07 06:56:06;;;;;;;11.80;8.60;;;;;;;;;;5057249;28;20335;-52
2023/04/07 06:58:32;;;;;;;9.33;8.40;;;;;;;;;;5045881;28;20248;-52
2023/04/07 07:01:00;;;;;;;10.50;8.40;;;;;;;;;;5039330;28;20232;-52
2023/04/07 07:03:28;;;;;;;8.33;7.43;;;;;;;;;;5039505;28;20824;-51
2023/04/07 07:05:55;;;;;;;11.03;8.07;;;;;;;;;;5028715;28;20228;-52
2023/04/07 07:08:22;;;;;;;9.40;8.40;;;;;;;;;;5041716;28;20662;-52
2023/04/07 07:10:48;;;;;;;8.90;7.53;;;;;;;;;;5041241;28;20245;-52
2023/04/07 07:13:17;;;;;;;10.23;8.50;;;;;;;;;;5031481;28;20237;-52
2023/04/07 07:15:43;;;;;;;12.33;9.07;;;;;;;;;;5043478;28;20769;-53
2023/04/07 07:18:10;;;;;;;9.43;7.93;;;;;;;;;;5046043;28;20614;-52
2023/04/07 07:20:37;;;;;;;9.50;8.40;;;;;;;;;;5038127;28;20231;-51
2023/04/07 07:23:04;;;;;;;11.00;7.90;;;;;;;;;;5041905;28;20876;-52
2023/04/07 07:25:31;;;;;;;8.80;7.90;;;;;;;;;;5057696;28;20262;-52
2023/04/07 07:27:57;;;;;;;8.53;7.70;;;;;;;;;;5034878;28;20236;-52
2023/04/07 07:30:25;;;;;;;12.37;8.03;;;;;;;;;;5040445;28;20727;-52
2023/04/07 07:32:53;;;;;;;8.50;7.60;;;;;;;;;;5036877;28;20252;-52
2023/04/07 07:35:20;;;;;;;9.13;8.00;;;;;;;;;;5029736;28;20234;-52
2023/04/07 07:37:47;;;;;;;10.23;8.20;;;;;;;;;;5048810;28;20645;-51
2023/04/07 07:40:14;;;;;;;9.50;7.40;;;;;;;;;;5044637;28;20315;-51
2023/04/07 07:42:41;;;;;;;8.03;6.93;;;;;;;;;;5052356;28;20278;-52
2023/04/07 07:45:08;;;;;;;9.03;7.07;;;;;;;;;;5048924;28;20231;-52
2023/04/07 07:47:36;;;;;;;13.53;8.03;;;;;;;;;;5060411;28;20240;-51
2023/04/07 07:50:03;;;;;;;12.07;7.03;;;;;;;;;;5062863;28;20701;-52
2023/04/07 07:52:30;;;;;;;8.87;6.93;;;;;;;;;;5058804;28;20262;-51
2023/04/07 07:54:56;;;;;;;7.47;6.23;;;;;;;;;;5047684;28;20358;-51
2023/04/07 07:57:23;;;;;;;9.23;7.70;;;;;;;;;;5035111;28;20232;-51
2023/04/07 07:59:50;;;;;;;9.03;7.53;;;;;;;;;;5043009;28;20320;-51
2023/04/07 08:02:17;;;;;;;8.83;6.43;;;;;;;;;;5053940;28;20228;-52
2023/04/07 08:04:45;;;;;;;8.20;6.10;;;;;;;;;;5044258;28;20245;-51
2023/04/07 08:07:11;;;;;;;9.23;6.47;;;;;;;;;;5043302;28;20232;-54
2023/04/07 08:09:38;;;;;;;8.20;6.70;;;;;;;;;;5050108;28;20231;-51
2023/04/07 08:12:05;;;;;;;9.37;6.27;;;;;;;;;;5057142;28;20235;-51
2023/04/07 08:14:31;;;;;;;8.17;6.17;;;;;;;;;;5063877;28;20300;-52
2023/04/07 08:16:58;;;;;;;5.73;4.97;;;;;;;;;;5056090;28;20664;-52
2023/04/07 08:19:25;;;;;;;6.40;4.80;;;;;;;;;;5043268;28;20231;-51
2023/04/07 08:21:53;;;;;;;5.10;4.53;;;;;;;;;;5050252;28;20280;-51
2023/04/07 08:24:20;;;;;;;6.20;4.90;;;;;;;;;;5061556;28;20239;-51
2023/04/07 08:26:47;;;;;;;5.47;4.10;;;;;;;;;;5060791;28;20226;-51
2023/04/07 08:29:13;;;;;;;5.60;4.33;;;;;;;;;;5060593;28;20266;-52
2023/04/07 08:31:40;;;;;;;6.63;4.13;;;;;;;;;;5047383;28;20230;-51
2023/04/07 08:34:06;;;;;;;6.20;4.13;;;;;;;;;;5062260;28;20304;-52
2023/04/07 08:36:33;;;;;;;5.93;4.47;;;;;;;;;;5043716;28;20251;-52
2023/04/07 08:39:04;;;;;;;5.20;3.70;;;;;;;;;;5050192;28;20232;-52
2023/04/07 08:41:33;;;;;;;5.43;4.23;;;;;;;;;;5053987;28;20231;-50
2023/04/07 08:44:01;;;;;;;7.07;4.33;;;;;;;;;;5055778;28;20232;-52
2023/04/07 08:46:28;;;;;;;6.53;4.80;;;;;;;;;;5063208;28;20304;-51
2023/04/07 08:48:55;;;;;;;4.93;3.90;;;;;;;;;;5039447;28;20816;-51
2023/04/07 08:51:30;;;;;;;5.10;3.80;;;;;;;;;;5043334;28;20251;-54
2023/04/07 08:54:01;;;;;;;7.63;4.67;;;;;;;;;;5045659;28;20314;-52
2023/04/07 08:56:29;;;;;;;8.03;4.90;;;;;;;;;;5043700;28;20231;-51
2023/04/07 08:58:56;;;;;;;4.23;3.70;;;;;;;;;;5049935;28;20659;-51
2023/04/07 09:01:23;;;;;;;6.67;4.00;;;;;;;;;;5052048;28;20255;-52
2023/04/07 09:03:50;;;;;;;6.93;4.33;;;;;;;;;;5048713;28;20277;-51
2023/04/07 09:06:17;;;;;;;5.77;4.23;;;;;;;;;;5049441;28;20233;-52
2023/04/07 09:08:43;;;;;;;6.17;4.30;;;;;;;;;;5045759;28;20236;-51
2023/04/07 09:11:10;;;;;;;5.77;4.10;;;;;;;;;;5043058;28;20236;-51
2023/04/07 09:13:38;;;;;;;5.23;3.80;;;;;;;;;;5045521;28;20242;-51
2023/04/07 09:16:05;;;;;;;4.00;3.67;;;;;;;;;;5042380;28;20227;-51
2023/04/07 09:18:31;;;;;;;5.00;3.83;;;;;;;;;;5048267;28;20601;-51
2023/04/07 09:20:59;;;;;;;6.07;4.53;;;;;;;;;;5053421;28;20228;-51
2023/04/07 09:23:30;;;;;;;4.67;3.60;;;;;;;;;;5049314;28;20301;-52
2023/04/07 09:25:58;;;;;;;7.77;4.17;;;;;;;;;;5049290;28;20235;-51
2023/04/07 09:28:40;;;;;;;6.37;4.10;;;;;;;;;;5058203;28;20228;-52
2023/04/07 09:31:07;;;;;;;6.37;4.17;;;;;;;;;;5042720;28;20597;-51
2023/04/07 09:33:40;;;;;;;4.40;3.97;;;;;;;;;;5062175;28;20308;-52
2023/04/07 09:36:09;;;;;;;8.13;4.47;;;;;;;;;;5049983;28;20231;-52
2023/04/07 09:38:37;;;;;;;7.60;3.30;;;;;;;;;;5052752;28;20324;-51
2023/04/07 09:41:07;;;;;;;4.90;3.70;;;;;;;;;;5051038;28;20231;-52
2023/04/07 09:43:35;;;;;;;6.83;3.90;;;;;;;;;;5061776;28;20234;-52
2023/04/07 09:46:08;;;;;;;4.43;3.10;;;;;;;;;;5059345;28;20239;-52
2023/04/07 09:48:35;;;;;;;5.47;3.33;;;;;;;;;;5061519;28;20231;-51
2023/04/07 09:51:05;;;;;;;3.87;3.20;;;;;;;;;;5039452;28;20242;-52
2023/04/07 09:53:41;;;;;;;4.40;3.40;;;;;;;;;;5046850;28;20235;-51
2023/04/07 09:56:08;;;;;;;4.03;3.10;;;;;;;;;;5061298;28;20226;-51
2023/04/07 09:58:35;;;;;;;3.90;2.87;;;;;;;;;;5052350;28;20243;-52
2023/04/07 10:01:01;;;;;;;4.43;3.43;;;;;;;;;;5039344;28;20238;-52
2023/04/07 10:03:29;;;;;;;3.30;3.00;;;;;;;;;;5043907;28;20231;-51
2023/04/07 10:05:56;;;;;;;3.40;3.03;;;;;;;;;;5042226;28;20231;-52
2023/04/07 10:08:22;;;;;;;4.70;3.37;;;;;;;;;;5043203;28;20289;-51
2023/04/07 10:10:50;;;;;;;3.20;2.90;;;;;;;;;;5043708;28;21137;-52
2023/04/07 10:13:16;;;;;;;3.53;3.03;;;;;;;;;;5043692;28;20236;-52
2023/04/07 10:15:43;;;;;;;4.30;3.10;;;;;;;;;;5042737;28;20315;-52
2023/04/07 10:18:09;;;;;;;3.13;2.80;;;;;;;;;;5042778;28;20339;-51
2023/04/07 10:20:40;;;;;;;3.70;3.07;;;;;;;;;;5041253;28;20236;-52
2023/04/07 10:23:10;;;;;;;4.07;3.00;;;;;;;;;;5044183;28;20235;-51
2023/04/07 10:25:39;;;;;;;3.30;2.33;;;;;;;;;;5046454;28;20293;-52
2023/04/07 10:28:08;;;;;;;3.23;2.27;;;;;;;;;;5036403;28;20240;-52
2023/04/07 10:30:35;;;;;;;3.80;3.00;;;;;;;;;;5043181;28;20315;-52
2023/04/07 10:33:02;;;;;;;2.87;2.00;;;;;;;;;;5038514;28;20231;-51
2023/04/07 10:35:29;;;;;;;2.63;2.40;;;;;;;;;;5047157;28;20235;-50
2023/04/07 10:38:13;;;;;;;2.70;2.30;;;;;;;;;;5045519;28;20771;-51
2023/04/07 10:40:40;;;;;;;2.33;2.13;;;;;;;;;;5029655;28;20310;-50
2023/04/07 10:43:10;;;;;;;2.90;2.33;;;;;;;;;;5047903;28;20236;-52
2023/04/07 10:45:52;;;;;;;3.60;2.00;;;;;;;;;;5047499;28;20232;-51
2023/04/07 10:48:19;;;;;;;3.77;1.90;;;;;;;;;;5034727;28;20240;-51
2023/04/07 10:50:46;;;;;;;3.03;2.73;;;;;;;;;;5030341;28;20260;-51
2023/04/07 10:53:15;;;;;;;3.30;2.93;;;;;;;;;;5036328;28;20358;-52
2023/04/07 10:55:43;;;;;;;5.07;3.33;;;;;;;;;;5039802;28;20324;-52
2023/04/07 10:58:14;;;;;;;4.20;2.97;;;;;;;;;;5040240;28;20224;-51
2023/04/07 11:00:40;;;;;;;7.07;2.93;;;;;;;;;;5041800;28;20239;-52
2023/04/07 11:03:11;;;;;;;2.63;2.20;;;;;;;;;;5043949;28;20657;-51
2023/04/07 11:05:38;;;;;;;4.13;2.70;;;;;;;;;;5045854;28;20236;-52
2023/04/07 11:08:06;;;;;;;4.27;2.70;;;;;;;;;;5038625;28;20305;-52
2023/04/07 11:10:34;;;;;;;5.67;2.63;;;;;;;;;;5045499;28;20251;-55
2023/04/07 11:13:06;;;;;;;3.97;2.77;;;;;;;;;;5038633;28;20289;-52
2023/04/07 11:15:34;;;;;;;3.17;2.87;;;;;;;;;;5036730;28;21000;-52
2023/04/07 11:18:07;;;;;;;3.93;3.40;;;;;;;;;;5033971;28;20233;-50
2023/04/07 11:20:44;;;;;;;3.67;3.37;;;;;;;;;;5037711;28;20301;-52
2023/04/07 11:23:11;;;;;;;3.53;3.03;;;;;;;;;;5045659;28;20230;-52
2023/04/07 11:25:39;;;;;;;4.63;3.63;;;;;;;;;;5051674;28;20235;-52
2023/04/07 11:28:06;;;;;;;3.80;3.00;;;;;;;;;;5041579;28;20236;-51
2023/04/07 11:30:35;;;;;;;5.67;3.57;;;;;;;;;;5049889;28;20255;-51
2023/04/07 11:33:01;;;;;;;3.80;3.40;;;;;;;;;;5057685;28;20314;-52
2023/04/07 11:35:28;;;;;;;5.10;4.30;;;;;;;;;;5033599;28;20702;-52
2023/04/07 11:37:58;;;;;;;5.63;4.70;;;;;;;;;;5050886;28;20234;-52
2023/04/07 11:40:35;;;;;;;5.10;4.00;;;;;;;;;;5047159;28;20236;-51
2023/04/07 11:43:15;;;;;;;6.80;4.13;;;;;;;;;;5036546;28;20228;-51
2023/04/07 11:45:42;;;;;;;6.30;4.67;;;;;;;;;;5043641;28;20228;-51
2023/04/07 11:48:23;;;;;;;5.23;4.43;;;;;;;;;;5046219;28;20239;-52
2023/04/07 11:50:50;;;;;;;4.43;3.70;;;;;;;;;;5044121;28;20227;-51
2023/04/07 11:53:25;;;;;;;4.10;3.50;;;;;;;;;;5043053;28;20232;-52
2023/04/07 11:55:59;;;;;;;4.60;4.17;;;;;;;;;;5046244;28;20709;-52
2023/04/07 11:58:27;;;;;;;5.07;4.53;;;;;;;;;;5044335;28;20240;-51
2023/04/07 12:00:55;;;;;;;5.07;4.67;;;;;;;;;;5056911;28;20239;-51
2023/04/07 12:03:23;;;;;;;6.80;5.53;;;;;;;;;;5049464;28;20232;-50
2023/04/07 12:05:50;;;;;;;5.53;5.03;;;;;;;;;;5054933;28;20786;-51
2023/04/07 12:08:18;;;;;;;5.40;4.90;;;;;;;;;;5033899;28;20739;-52
2023/04/07 12:10:45;;;;;;;6.53;5.03;;;;;;;;;;5046332;28;20231;-52
2023/04/07 12:13:13;;;;;;;4.90;4.47;;;;;;;;;;5046535;28;20236;-51
2023/04/07 12:15:41;;;;;;;5.13;4.63;;;;;;;;;;5049444;28;20230;-52
2023/04/07 12:18:08;;;;;;;5.27;4.80;;;;;;;;;;5043187;28;20247;-52
2023/04/07 12:20:34;;;;;;;5.17;4.07;;;;;;;;;;5045440;28;20248;-52
2023/04/07 12:23:01;;;;;;;5.77;4.67;;;;;;;;;;5045287;28;20240;-52
2023/04/07 12:25:28;;;;;;;5.57;5.03;;;;;;;;;;5048399;28;20581;-52
2023/04/07 12:27:55;;;;;;;5.63;4.53;;;;;;;;;;5045221;28;20331;-52
2023/04/07 12:30:21;;;;;;;5.20;4.70;;;;;;;;;;5046400;28;20311;-52
2023/04/07 12:32:49;;;;;;;7.27;5.07;;;;;;;;;;5049363;28;20227;-53
2023/04/07 12:35:16;;;;;;;4.90;4.40;;;;;;;;;;5045725;28;20788;-52
2023/04/07 12:37:42;;;;;;;5.80;3.87;;;;;;;;;;5046398;28;20278;-51
2023/04/07 12:40:09;;;;;;;4.90;4.47;;;;;;;;;;5044351;28;20243;-52
2023/04/07 12:42:36;;;;;;;4.63;3.93;;;;;;;;;;5044884;28;21702;-51
2023/04/07 12:45:03;;;;;;;6.53;3.77;;;;;;;;;;5044909;28;20244;-51
2023/04/07 12:47:30;;;;;;;4.47;3.40;;;;;;;;;;5043674;28;20255;-52
2023/04/07 12:49:58;;;;;;;3.97;3.53;;;;;;;;;;5036300;28;20232;-52
2023/04/07 12:52:25;;;;;;;5.30;4.07;;;;;;;;;;5042217;28;20227;-52
2023/04/07 12:54:52;;;;;;;5.23;4.60;;;;;;;;;;5050842;28;20292;-52
2023/04/07 12:57:18;;;;;;;4.80;4.00;;;;;;;;;;5042941;28;20244;-52
2023/04/07 12:59:45;;;;;;;6.20;4.10;;;;;;;;;;5050636;28;20318;-52
2023/04/07 13:02:12;;;;;;;5.03;4.10;;;;;;;;;;5045973;28;20235;-51
2023/04/07 13:04:39;;;;;;;5.43;4.37;;;;;;;;;;5047076;28;20270;-51
2023/04/07 13:07:08;;;;;;;4.07;3.60;;;;;;;;;;5043907;28;20315;-54
2023/04/07 13:09:35;;;;;;;4.57;3.57;;;;;;;;;;5050069;28;20231;-51
2023/04/07 13:12:02;;;;;;;3.63;3.33;;;;;;;;;;5050680;28;20775;-55
2023/04/07 13:14:28;;;;;;;3.83;2.90;;;;;;;;;;5045772;28;20230;-52
2023/04/07 13:16:55;;;;;;;2.93;2.67;;;;;;;;;;5045021;28;20243;-51
2023/04/07 13:19:22;;;;;;;3.17;2.80;;;;;;;;;;5046989;28;20227;-51
2023/04/07 13:21:48;;;;;;;3.37;2.97;;;;;;;;;;5038594;28;20224;-52
2023/04/07 13:24:16;;;;;;;3.10;2.80;;;;;;;;;;5048236;28;20239;-51
2023/04/07 13:26:43;;;;;;;3.87;3.57;;;;;;;;;;5040395;28;20997;-50
2023/04/07 13:29:09;;;;;;;4.27;3.37;;;;;;;;;;5044478;28;20243;-52
2023/04/07 13:31:36;;;;;;;3.07;2.63;;;;;;;;;;5041487;28;20667;-52
2023/04/07 13:34:04;;;;;;;3.30;3.00;;;;;;;;;;5047771;28;20699;-51
2023/04/07 13:36:31;;;;;;;3.80;3.20;;;;;;;;;;5040319;28;20235;-52
2023/04/07 13:38:58;;;;;;;4.10;3.57;;;;;;;;;;5039586;28;20247;-51
2023/04/07 13:41:26;;;;;;;3.63;3.07;;;;;;;;;;5041192;28;20238;-52
2023/04/07 13:43:53;;;;;;;4.47;3.60;;;;;;;;;;5041750;28;20268;-52
2023/04/07 13:46:20;;;;;;;3.33;2.70;;;;;;;;;;5039763;28;20296;-52
2023/04/07 13:48:46;;;;;;;3.50;3.00;;;;;;;;;;5036800;28;20240;-51
2023/04/07 13:51:13;;;;;;;2.87;2.57;;;;;;;;;;5034137;28;20232;-51
2023/04/07 13:53:40;;;;;;;4.83;3.17;;;;;;;;;;5039875;28;20223;-51
2023/04/07 13:56:07;;;;;;;2.97;2.67;;;;;;;;;;5045575;28;20238;-52
2023/04/07 13:58:36;;;;;;;3.30;3.00;;;;;;;;;;5045488;28;20468;-51
2023/04/07 14:01:03;;;;;;;3.17;2.90;;;;;;;;;;5043102;28;20238;-52
2023/04/07 14:03:30;;;;;;;4.00;3.60;;;;;;;;;;5050824;28;20318;-51
2023/04/07 14:05:59;;;;;;;3.73;3.40;;;;;;;;;;5044440;28;20318;-51
2023/04/07 14:08:26;;;;;;;3.63;3.30;;;;;;;;;;5049355;28;20648;-51
2023/04/07 14:10:53;;;;;;;3.77;3.47;;;;;;;;;;5046460;28;20231;-52
2023/04/07 14:13:19;;;;;;;3.47;2.83;;;;;;;;;;5046708;28;20990;-53
2023/04/07 14:15:48;;;;;;;3.57;3.17;;;;;;;;;;5036874;28;20633;-50
2023/04/07 14:18:16;;;;;;;4.73;3.83;;;;;;;;;;5031757;28;20665;-52
2023/04/07 14:20:42;;;;;;;4.17;3.17;;;;;;;;;;5036605;28;20804;-52
2023/04/07 14:23:09;;;;;;;3.70;3.40;;;;;;;;;;5044765;28;20242;-52
2023/04/07 14:25:35;;;;;;;3.73;3.43;;;;;;;;;;5047083;28;20246;-51
2023/04/07 14:28:01;;;;;;;4.20;3.23;;;;;;;;;;5046621;28;20246;-51
2023/04/07 14:30:29;;;;;;;3.50;3.07;;;;;;;;;;5046394;28;20653;-51
2023/04/07 14:32:57;;;;;;;5.70;3.57;;;;;;;;;;5040180;28;20235;-50
2023/04/07 14:35:23;;;;;;;5.67;4.10;;;;;;;;;;5035351;28;21009;-51
2023/04/07 14:37:51;;;;;;;4.07;3.27;;;;;;;;;;5035162;28;20239;-50
2023/04/07 14:40:17;;;;;;;3.73;3.20;;;;;;;;;;5040239;28;20717;-51